createdAt,value
2018-03-27T00:01:08.295Z,2.20
2018-03-27T00:03:35.810Z,2.20
2018-03-27T00:06:03.293Z,2.10
2018-03-27T00:08:30.823Z,2.10
2018-03-27T00:10:58.320Z,2.10
2018-03-27T00:13:25.788Z,2.00
2018-03-27T00:15:53.291Z,2.10
2018-03-27T00:18:20.838Z,1.90
2018-03-27T00:20:48.353Z,2.00
2018-03-27T00:23:15.835Z,2.10
2018-03-27T00:25:43.331Z,1.90
2018-03-27T00:28:22.674Z,1.90
2018-03-27T00:31:01.892Z,1.90
2018-03-27T00:33:41.182Z,1.90
2018-03-27T00:36:20.567Z,1.80
2018-03-27T00:38:59.810Z,1.70
2018-03-27T00:44:35.367Z,1.60
2018-03-27T00:47:02.881Z,1.60
2018-03-27T00:49:31.132Z,1.60
2018-03-27T00:51:58.664Z,1.50
2018-03-27T00:54:26.262Z,1.60
2018-03-27T00:56:53.891Z,1.50
2018-03-27T00:59:21.448Z,1.60
2018-03-27T01:01:48.989Z,1.70
2018-03-27T01:04:16.515Z,1.70
2018-03-27T01:06:44.254Z,1.70
2018-03-27T01:09:11.768Z,1.70
2018-03-27T01:11:39.270Z,1.70
2018-03-27T01:14:06.735Z,1.80
2018-03-27T01:16:34.248Z,1.70
2018-03-27T01:19:01.733Z,1.70
2018-03-27T01:21:29.225Z,1.70
2018-03-27T01:23:57.487Z,1.60
2018-03-27T01:26:24.983Z,1.60
2018-03-27T01:28:52.458Z,1.60
2018-03-27T01:31:20.696Z,1.30
2018-03-27T01:33:48.974Z,1.20
2018-03-27T01:36:17.206Z,1.10
2018-03-27T01:38:45.291Z,1.20
2018-03-27T01:41:12.763Z,1.10
2018-03-27T01:43:40.259Z,1.00
2018-03-27T01:46:08.767Z,0.90
2018-03-27T01:48:36.296Z,0.90
2018-03-27T01:51:03.786Z,0.80
2018-03-27T01:53:31.267Z,0.70
2018-03-27T01:55:58.767Z,0.70
2018-03-27T01:58:26.270Z,0.60
2018-03-27T02:00:53.764Z,0.60
2018-03-27T02:03:22.018Z,0.50
2018-03-27T02:05:49.528Z,0.50
2018-03-27T02:08:16.992Z,0.50
2018-03-27T02:10:43.974Z,0.60
2018-03-27T02:13:17.096Z,0.50
2018-03-27T02:15:50.324Z,0.60
2018-03-27T02:18:23.405Z,0.60
2018-03-27T02:20:56.622Z,0.60
2018-03-27T02:23:41.966Z,0.60
2018-03-27T02:26:09.462Z,0.70
2018-03-27T02:28:36.943Z,0.60
2018-03-27T02:31:05.183Z,0.70
2018-03-27T02:33:32.657Z,0.70
2018-03-27T02:36:00.135Z,0.80
2018-03-27T02:38:27.644Z,0.70
2018-03-27T02:40:55.129Z,0.70
2018-03-27T02:43:22.598Z,0.80
2018-03-27T02:45:50.105Z,0.80
2018-03-27T02:48:17.588Z,0.80
2018-03-27T02:50:45.793Z,0.80
2018-03-27T02:53:14.044Z,0.90
2018-03-27T02:55:41.528Z,0.80
2018-03-27T02:58:09.032Z,0.90
2018-03-27T03:00:37.396Z,0.80
2018-03-27T03:03:04.924Z,0.90
2018-03-27T03:05:32.426Z,0.90
2018-03-27T03:07:59.897Z,1.00
2018-03-27T03:10:27.393Z,1.00
2018-03-27T03:12:54.890Z,1.10
2018-03-27T03:15:22.410Z,1.10
2018-03-27T03:17:49.872Z,1.10
2018-03-27T03:20:17.351Z,1.20
2018-03-27T03:22:44.864Z,1.30
2018-03-27T03:25:12.351Z,1.20
2018-03-27T03:27:40.583Z,1.00
2018-03-27T03:30:08.833Z,1.00
2018-03-27T03:32:36.332Z,1.00
2018-03-27T03:35:03.815Z,0.90
2018-03-27T03:37:32.058Z,0.80
2018-03-27T03:39:59.538Z,0.80
2018-03-27T03:42:27.787Z,0.60
2018-03-27T03:44:55.255Z,0.70
2018-03-27T03:47:22.995Z,0.60
2018-03-27T03:49:50.466Z,0.70
2018-03-27T03:52:17.972Z,0.60
2018-03-27T03:54:45.488Z,0.60
2018-03-27T03:57:13.567Z,0.60
2018-03-27T03:59:41.902Z,0.60
2018-03-27T04:02:09.431Z,0.60
2018-03-27T04:04:36.937Z,0.50
2018-03-27T04:07:04.411Z,0.50
2018-03-27T04:09:31.921Z,0.50
2018-03-27T04:11:59.413Z,0.40
2018-03-27T04:14:26.904Z,0.50
2018-03-27T04:16:55.396Z,0.60
2018-03-27T04:19:22.863Z,0.60
2018-03-27T04:21:50.360Z,0.60
2018-03-27T04:24:18.641Z,0.50
2018-03-27T04:26:46.133Z,0.50
2018-03-27T04:29:13.631Z,0.60
2018-03-27T04:31:42.045Z,0.50
2018-03-27T04:34:09.508Z,0.50
2018-03-27T04:36:37.011Z,0.50
2018-03-27T04:39:04.715Z,0.40
2018-03-27T04:41:32.196Z,0.40
2018-03-27T04:43:59.667Z,0.60
2018-03-27T04:46:28.933Z,0.30
2018-03-27T04:48:56.458Z,0.30
2018-03-27T04:51:23.955Z,0.20
2018-03-27T04:53:51.442Z,0.00
2018-03-27T04:56:19.707Z,-0.10
2018-03-27T04:58:48.000Z,0.00
2018-03-27T05:01:15.525Z,-0.10
2018-03-27T05:03:43.019Z,-0.10
2018-03-27T05:06:10.576Z,0.00
2018-03-27T05:08:38.051Z,0.10
2018-03-27T05:11:05.559Z,0.20
2018-03-27T05:13:33.069Z,0.40
2018-03-27T05:16:00.826Z,0.40
2018-03-27T05:18:28.325Z,0.40
2018-03-27T05:20:55.802Z,0.50
2018-03-27T05:23:23.283Z,0.40
2018-03-27T05:25:51.525Z,0.40
2018-03-27T05:28:20.843Z,0.50
2018-03-27T05:30:49.120Z,0.40
2018-03-27T05:33:17.394Z,0.50
2018-03-27T05:35:44.878Z,0.50
2018-03-27T05:38:12.398Z,0.60
2018-03-27T05:40:40.657Z,0.70
2018-03-27T05:43:08.184Z,0.80
2018-03-27T05:45:35.680Z,0.70
2018-03-27T05:48:03.183Z,0.70
2018-03-27T05:50:32.232Z,0.70
2018-03-27T05:52:59.716Z,0.70
2018-03-27T05:55:27.231Z,0.70
2018-03-27T05:57:54.735Z,0.70
2018-03-27T06:00:22.216Z,0.80
2018-03-27T06:02:49.801Z,1.00
2018-03-27T06:05:17.289Z,1.10
2018-03-27T06:07:44.783Z,1.20
2018-03-27T06:10:12.298Z,1.20
2018-03-27T06:12:39.766Z,1.10
2018-03-27T06:15:07.532Z,1.10
2018-03-27T06:17:35.031Z,1.00
2018-03-27T06:20:02.546Z,1.10
2018-03-27T06:22:30.040Z,1.10
2018-03-27T06:24:57.546Z,1.00
2018-03-27T06:27:25.096Z,1.10
2018-03-27T06:29:52.572Z,1.20
2018-03-27T06:32:20.074Z,1.40
2018-03-27T06:34:47.762Z,1.60
2018-03-27T06:37:15.241Z,2.00
2018-03-27T06:39:42.776Z,2.50
2018-03-27T06:42:10.343Z,2.90
2018-03-27T06:44:38.530Z,3.50
2018-03-27T06:47:06.067Z,3.30
2018-03-27T06:49:33.571Z,3.60
2018-03-27T06:52:01.059Z,3.60
2018-03-27T06:54:28.626Z,3.60
2018-03-27T06:56:56.667Z,3.70
2018-03-27T06:59:24.153Z,3.70
2018-03-27T07:01:51.647Z,3.90
2018-03-27T07:04:22.766Z,3.70
2018-03-27T07:06:50.255Z,3.40
2018-03-27T07:09:17.780Z,3.30
2018-03-27T07:11:45.272Z,3.10
2018-03-27T07:14:12.766Z,3.20
2018-03-27T07:16:41.039Z,3.20
2018-03-27T07:19:08.563Z,3.20
2018-03-27T07:21:36.060Z,3.20
2018-03-27T07:24:04.308Z,3.40
2018-03-27T07:26:32.063Z,4.10
2018-03-27T07:28:59.566Z,3.80
2018-03-27T07:31:27.059Z,4.50
2018-03-27T07:33:54.559Z,5.10
2018-03-27T07:36:22.039Z,5.80
2018-03-27T07:38:49.517Z,6.60
2018-03-27T07:41:16.991Z,7.00
2018-03-27T07:43:44.475Z,6.80
2018-03-27T07:46:11.991Z,6.90
2018-03-27T07:48:39.462Z,6.80
2018-03-27T07:51:06.946Z,6.50
2018-03-27T07:53:34.430Z,6.60
2018-03-27T07:56:01.920Z,6.70
2018-03-27T07:58:29.471Z,7.10
2018-03-27T08:00:56.942Z,7.70
2018-03-27T08:03:24.413Z,8.00
2018-03-27T08:05:51.909Z,8.20
2018-03-27T08:08:19.386Z,7.90
2018-03-27T08:10:46.895Z,7.50
2018-03-27T08:13:14.333Z,7.20
2018-03-27T08:15:41.819Z,7.00
2018-03-27T08:18:09.320Z,6.80
2018-03-27T08:20:36.809Z,7.00
2018-03-27T08:23:04.309Z,6.90
2018-03-27T08:25:32.576Z,6.70
2018-03-27T08:28:00.058Z,6.70
2018-03-27T08:30:28.419Z,7.00
2018-03-27T08:32:55.921Z,6.90
2018-03-27T08:35:23.433Z,7.00
2018-03-27T08:37:51.669Z,7.10
2018-03-27T08:40:19.954Z,7.20
2018-03-27T08:42:47.463Z,7.20
2018-03-27T08:45:14.934Z,7.30
2018-03-27T08:47:42.447Z,7.30
2018-03-27T08:50:09.953Z,7.10
2018-03-27T08:52:37.433Z,7.20
2018-03-27T08:55:04.972Z,7.10
2018-03-27T08:57:32.457Z,7.10
2018-03-27T08:59:59.942Z,6.80
2018-03-27T09:02:28.205Z,6.60
2018-03-27T09:04:55.688Z,6.60
2018-03-27T09:07:23.168Z,6.60
2018-03-27T09:09:50.652Z,6.60
2018-03-27T09:12:18.163Z,6.80
2018-03-27T09:14:46.407Z,7.30
2018-03-27T09:17:14.659Z,7.50
2018-03-27T09:19:42.159Z,7.50
2018-03-27T09:22:09.646Z,7.70
2018-03-27T09:24:37.132Z,7.80
2018-03-27T09:27:04.604Z,7.80
2018-03-27T09:29:32.068Z,7.70
2018-03-27T09:31:59.554Z,7.90
2018-03-27T09:34:27.014Z,8.10
2018-03-27T09:36:54.525Z,8.20
2018-03-27T09:39:21.989Z,8.30
2018-03-27T09:41:49.497Z,8.30
2018-03-27T09:44:17.740Z,8.50
2018-03-27T09:46:45.249Z,8.50
2018-03-27T09:49:12.742Z,8.70
2018-03-27T09:51:40.274Z,9.20
2018-03-27T09:54:07.778Z,9.40
2018-03-27T09:56:35.257Z,9.00
2018-03-27T09:59:03.752Z,8.60
2018-03-27T10:01:31.467Z,8.60
2018-03-27T10:03:58.950Z,8.40
2018-03-27T10:06:27.206Z,8.30
2018-03-27T10:08:54.738Z,8.30
2018-03-27T10:11:22.170Z,8.40
2018-03-27T10:13:49.669Z,8.40
2018-03-27T10:16:17.182Z,8.30
2018-03-27T10:18:44.695Z,8.00
2018-03-27T10:21:12.502Z,8.00
2018-03-27T10:23:39.976Z,8.20
2018-03-27T10:26:07.457Z,8.10
2018-03-27T10:28:34.941Z,8.20
2018-03-27T10:31:02.447Z,8.20
2018-03-27T10:33:29.940Z,8.20
2018-03-27T10:35:57.431Z,8.50
2018-03-27T10:38:25.692Z,8.90
2018-03-27T10:40:53.195Z,8.90
2018-03-27T10:43:20.738Z,8.90
2018-03-27T10:45:48.207Z,9.00
2018-03-27T10:48:15.673Z,8.80
2018-03-27T10:50:43.153Z,8.60
2018-03-27T10:53:10.888Z,8.70
2018-03-27T10:55:38.413Z,8.90
2018-03-27T10:58:05.873Z,9.10
2018-03-27T11:00:34.124Z,9.70
2018-03-27T11:03:01.630Z,9.60
2018-03-27T11:05:29.149Z,9.80
2018-03-27T11:07:56.659Z,10.20
2018-03-27T11:10:24.137Z,10.20
2018-03-27T11:12:51.614Z,9.80
2018-03-27T11:15:19.124Z,9.40
2018-03-27T11:17:46.616Z,9.20
2018-03-27T11:20:14.142Z,9.10
2018-03-27T11:22:41.676Z,9.30
2018-03-27T11:25:09.156Z,9.30
2018-03-27T11:27:36.644Z,9.40
2018-03-27T11:30:04.125Z,9.50
2018-03-27T11:32:31.621Z,9.50
2018-03-27T11:34:59.093Z,9.70
2018-03-27T11:37:26.581Z,9.80
2018-03-27T11:39:54.099Z,9.70
2018-03-27T11:42:21.602Z,9.90
2018-03-27T11:44:49.118Z,10.00
2018-03-27T11:47:16.589Z,10.10
2018-03-27T11:49:44.067Z,9.90
2018-03-27T11:52:11.576Z,9.60
2018-03-27T11:54:39.085Z,9.50
2018-03-27T11:57:06.592Z,9.80
2018-03-27T11:59:34.073Z,10.00
2018-03-27T12:02:01.556Z,9.90
2018-03-27T12:04:29.065Z,10.00
2018-03-27T12:06:56.546Z,9.80
2018-03-27T12:09:24.077Z,9.80
2018-03-27T12:11:52.096Z,9.80
2018-03-27T12:14:19.563Z,9.70
2018-03-27T12:16:47.045Z,9.50
2018-03-27T12:19:15.463Z,9.20
2018-03-27T12:21:42.969Z,9.30
2018-03-27T12:24:11.394Z,9.10
2018-03-27T12:26:38.887Z,9.10
2018-03-27T12:29:06.377Z,9.00
2018-03-27T12:31:34.668Z,8.60
2018-03-27T12:34:02.162Z,8.70
2018-03-27T12:36:29.682Z,8.60
2018-03-27T12:38:57.133Z,8.50
2018-03-27T12:41:24.627Z,8.50
2018-03-27T12:43:52.124Z,8.50
2018-03-27T12:46:19.606Z,8.40
2018-03-27T12:48:47.854Z,8.60
2018-03-27T12:51:15.335Z,8.60
2018-03-27T12:53:43.814Z,8.50
2018-03-27T12:56:12.075Z,8.60
2018-03-27T12:58:39.555Z,8.60
2018-03-27T13:01:07.041Z,8.80
2018-03-27T13:03:34.527Z,9.00
2018-03-27T13:06:02.027Z,9.10
2018-03-27T13:08:30.269Z,9.10
2018-03-27T13:10:57.756Z,9.00
2018-03-27T13:13:25.240Z,8.80
2018-03-27T13:15:52.717Z,8.60
2018-03-27T13:18:20.206Z,8.50
2018-03-27T13:20:47.665Z,8.40
2018-03-27T13:23:15.943Z,8.20
2018-03-27T13:25:43.414Z,8.20
2018-03-27T13:28:10.903Z,8.10
2018-03-27T13:30:38.401Z,8.00
2018-03-27T13:33:05.877Z,8.00
2018-03-27T13:35:41.023Z,7.90
2018-03-27T13:38:08.503Z,7.80
2018-03-27T13:40:35.995Z,7.90
2018-03-27T13:43:03.493Z,7.90
2018-03-27T13:45:31.771Z,7.80
2018-03-27T13:47:59.270Z,7.80
2018-03-27T13:50:26.767Z,8.00
2018-03-27T13:52:54.250Z,8.10
2018-03-27T13:55:21.770Z,8.20
2018-03-27T13:57:49.263Z,8.30
2018-03-27T14:00:17.585Z,8.20
2018-03-27T14:02:45.016Z,8.20
2018-03-27T14:05:12.473Z,8.20
2018-03-27T14:07:39.973Z,8.20
2018-03-27T14:10:07.460Z,8.20
2018-03-27T14:12:34.947Z,8.00
2018-03-27T14:15:02.466Z,8.10
2018-03-27T14:17:29.948Z,8.00
2018-03-27T14:19:57.452Z,8.00
2018-03-27T14:22:24.934Z,8.00
2018-03-27T14:24:52.404Z,8.10
2018-03-27T14:27:21.309Z,8.20
2018-03-27T14:29:48.773Z,8.20
2018-03-27T14:32:16.299Z,8.10
2018-03-27T14:34:43.781Z,8.10
2018-03-27T14:37:11.270Z,8.10
2018-03-27T14:39:38.740Z,8.10
2018-03-27T14:42:06.233Z,8.00
2018-03-27T14:44:33.751Z,7.70
2018-03-27T14:47:01.461Z,7.40
2018-03-27T14:49:29.749Z,6.60
2018-03-27T14:51:58.020Z,6.40
2018-03-27T14:54:25.570Z,6.40
2018-03-27T14:56:53.063Z,6.10
2018-03-27T14:59:20.551Z,5.90
2018-03-27T15:01:48.077Z,5.80
2018-03-27T15:04:15.560Z,5.70
2018-03-27T15:06:43.063Z,5.80
2018-03-27T15:09:11.341Z,5.70
2018-03-27T15:11:39.602Z,5.70
2018-03-27T15:14:07.134Z,5.70
2018-03-27T15:16:34.639Z,5.70
2018-03-27T15:19:02.132Z,5.70
2018-03-27T15:21:29.633Z,5.70
2018-03-27T15:23:57.112Z,5.70
2018-03-27T15:26:24.635Z,5.60
2018-03-27T15:28:52.164Z,5.60
2018-03-27T15:31:19.648Z,5.60
2018-03-27T15:33:47.148Z,5.70
2018-03-27T15:36:14.638Z,5.70
2018-03-27T15:38:42.150Z,5.70
2018-03-27T15:41:10.400Z,5.80
2018-03-27T15:43:38.648Z,5.80
2018-03-27T15:46:06.145Z,5.80
2018-03-27T15:48:33.638Z,5.80
2018-03-27T15:51:01.161Z,5.90
2018-03-27T15:53:29.416Z,6.00
2018-03-27T15:55:56.897Z,5.90
2018-03-27T15:58:24.450Z,5.90
2018-03-27T16:00:52.753Z,5.90
2018-03-27T16:03:20.270Z,5.90
2018-03-27T16:05:47.937Z,5.90
2018-03-27T16:08:22.021Z,5.80
2018-03-27T16:10:49.556Z,5.90
2018-03-27T16:13:17.096Z,5.90
2018-03-27T16:15:44.552Z,5.80
2018-03-27T16:18:12.290Z,5.90
2018-03-27T16:20:39.801Z,5.90
2018-03-27T16:23:08.044Z,5.90
2018-03-27T16:25:36.312Z,5.90
2018-03-27T16:28:04.574Z,5.80
2018-03-27T16:30:32.086Z,5.80
2018-03-27T16:32:59.609Z,5.80
2018-03-27T16:35:27.138Z,5.70
2018-03-27T16:37:54.665Z,5.70
2018-03-27T16:40:22.143Z,5.50
2018-03-27T16:42:49.646Z,5.60
2018-03-27T16:45:17.895Z,5.40
2018-03-27T16:47:45.407Z,5.30
2018-03-27T16:50:12.916Z,5.40
2018-03-27T16:52:40.410Z,5.30
2018-03-27T16:55:07.906Z,5.20
2018-03-27T16:57:35.403Z,5.20
2018-03-27T17:00:02.929Z,5.10
2018-03-27T17:02:30.693Z,5.10
2018-03-27T17:04:58.543Z,5.00
2018-03-27T17:07:26.052Z,5.00
2018-03-27T17:09:53.581Z,5.00
2018-03-27T17:12:21.103Z,5.00
2018-03-27T17:14:48.585Z,5.00
2018-03-27T17:20:02.841Z,5.00
2018-03-27T17:22:30.330Z,4.90
2018-03-27T17:24:57.837Z,4.90
2018-03-27T17:27:31.913Z,5.00
2018-03-27T17:29:59.417Z,4.90
2018-03-27T17:32:27.444Z,4.90
2018-03-27T17:34:55.741Z,4.80
2018-03-27T17:37:23.254Z,4.80
2018-03-27T17:39:50.753Z,4.80
2018-03-27T17:42:18.282Z,4.80
2018-03-27T17:44:45.769Z,4.70
2018-03-27T17:47:14.034Z,4.70
2018-03-27T17:49:42.304Z,4.60
2018-03-27T17:52:10.588Z,4.60
2018-03-27T17:54:38.897Z,4.50
2018-03-27T17:57:06.388Z,4.50
2018-03-27T17:59:33.878Z,4.60
2018-03-27T18:02:01.429Z,4.50
2018-03-27T18:04:29.730Z,4.50
2018-03-27T18:06:57.626Z,4.50
2018-03-27T18:09:25.119Z,4.50
2018-03-27T18:11:52.619Z,4.40
2018-03-27T18:14:20.141Z,4.50
2018-03-27T18:16:47.728Z,4.50
2018-03-27T18:19:15.249Z,4.50
2018-03-27T18:21:42.756Z,4.50
2018-03-27T18:24:10.249Z,4.50
2018-03-27T18:26:37.762Z,4.50
2018-03-27T18:29:05.258Z,4.50
2018-03-27T18:31:32.777Z,4.50
2018-03-27T18:34:00.278Z,4.50
2018-03-27T18:36:27.767Z,4.50
2018-03-27T18:38:56.042Z,4.50
2018-03-27T18:41:23.518Z,4.40
2018-03-27T18:43:51.063Z,4.50
2018-03-27T18:46:18.602Z,4.50
2018-03-27T18:48:46.092Z,4.50
2018-03-27T18:51:14.379Z,4.50
2018-03-27T18:53:41.901Z,4.50
2018-03-27T18:56:09.494Z,4.50
2018-03-27T18:58:37.000Z,4.50
2018-03-27T19:01:05.255Z,4.50
2018-03-27T19:03:32.764Z,4.50
2018-03-27T19:06:00.271Z,4.40
2018-03-27T19:08:27.771Z,4.50
2018-03-27T19:10:55.273Z,4.50
2018-03-27T19:13:22.757Z,4.50
2018-03-27T19:15:50.258Z,4.40
2018-03-27T19:18:17.764Z,4.40
2018-03-27T19:20:45.294Z,4.40
2018-03-27T19:23:12.851Z,4.40
2018-03-27T19:25:40.378Z,4.50
2018-03-27T19:28:07.927Z,4.40
2018-03-27T19:30:35.410Z,4.50
2018-03-27T19:33:02.929Z,4.50
2018-03-27T19:35:30.422Z,4.40
2018-03-27T19:37:58.710Z,4.50
2018-03-27T19:40:27.007Z,4.50
2018-03-27T19:42:54.548Z,4.40
2018-03-27T19:45:23.327Z,4.50
2018-03-27T19:47:51.668Z,4.40
2018-03-27T19:50:19.341Z,4.40
2018-03-27T19:52:47.826Z,4.50
2018-03-27T19:55:15.363Z,4.50
2018-03-27T19:57:43.773Z,4.50
2018-03-27T20:00:11.295Z,4.50
2018-03-27T20:02:38.833Z,4.50
2018-03-27T20:05:06.375Z,4.40
2018-03-27T20:07:33.936Z,4.40
2018-03-27T20:10:01.470Z,4.40
2018-03-27T20:12:29.777Z,4.50
2018-03-27T20:15:11.718Z,4.50
2018-03-27T20:17:40.259Z,4.50
2018-03-27T20:20:07.852Z,4.50
2018-03-27T20:22:42.426Z,4.50
2018-03-27T20:25:10.777Z,4.50
2018-03-27T20:27:38.527Z,4.50
2018-03-27T20:30:07.102Z,4.60
2018-03-27T20:32:38.157Z,4.50
2018-03-27T20:35:06.454Z,4.60
2018-03-27T20:37:33.998Z,4.50
2018-03-27T20:40:01.764Z,4.50
2018-03-27T20:42:30.001Z,4.50
2018-03-27T20:44:57.842Z,4.60
2018-03-27T20:47:25.412Z,4.40
2018-03-27T20:49:53.228Z,4.60
2018-03-27T20:52:20.734Z,4.60
2018-03-27T20:54:48.252Z,4.60
2018-03-27T20:57:15.783Z,4.60
2018-03-27T20:59:43.290Z,4.60
2018-03-27T21:02:11.581Z,4.60
2018-03-27T21:04:39.095Z,4.60
2018-03-27T21:07:06.822Z,4.70
2018-03-27T21:09:34.366Z,4.70
2018-03-27T21:12:01.881Z,4.70
2018-03-27T21:14:29.392Z,4.70
2018-03-27T21:16:56.901Z,4.70
2018-03-27T21:19:24.449Z,4.70
2018-03-27T21:21:52.739Z,4.80
2018-03-27T21:24:20.236Z,4.70
2018-03-27T21:26:47.752Z,4.80
2018-03-27T21:29:16.019Z,4.70
2018-03-27T21:31:43.555Z,4.70
2018-03-27T21:34:11.099Z,4.70
2018-03-27T21:36:38.662Z,4.80
2018-03-27T21:39:06.178Z,4.80
2018-03-27T21:41:34.424Z,4.80
2018-03-27T21:44:01.906Z,4.80
2018-03-27T21:46:30.211Z,4.90
2018-03-27T21:48:57.730Z,4.90
2018-03-27T21:51:25.549Z,4.90
2018-03-27T21:53:53.030Z,4.90
2018-03-27T21:56:20.524Z,4.90
2018-03-27T21:58:48.033Z,4.80
2018-03-27T22:01:15.508Z,4.90
2018-03-27T22:03:43.014Z,5.00
2018-03-27T22:06:10.501Z,5.00
2018-03-27T22:08:37.999Z,5.00
2018-03-27T22:11:05.839Z,5.00
2018-03-27T22:13:33.326Z,5.00
2018-03-27T22:16:01.601Z,5.00
2018-03-27T22:18:29.910Z,5.00
2018-03-27T22:20:57.745Z,5.00
2018-03-27T22:23:25.233Z,5.10
2018-03-27T22:25:52.720Z,5.00
2018-03-27T22:28:20.233Z,5.00
2018-03-27T22:30:48.475Z,5.10
2018-03-27T22:33:15.962Z,5.10
2018-03-27T22:35:44.243Z,5.10
2018-03-27T22:38:11.737Z,5.10
2018-03-27T22:40:40.203Z,5.10
2018-03-27T22:43:07.712Z,5.00
2018-03-27T22:45:35.957Z,5.10
2018-03-27T22:48:03.475Z,5.10
2018-03-27T22:50:31.314Z,5.00
2018-03-27T22:52:59.320Z,5.10
2018-03-27T22:55:27.345Z,5.10
2018-03-27T22:57:56.906Z,5.10
2018-03-27T23:00:24.453Z,5.10
2018-03-27T23:02:52.001Z,5.10
2018-03-27T23:05:20.413Z,5.10
2018-03-27T23:07:47.916Z,5.10
2018-03-27T23:10:15.404Z,5.10
2018-03-27T23:12:42.916Z,5.10
2018-03-27T23:15:10.422Z,5.20
2018-03-27T23:17:38.926Z,5.20
2018-03-27T23:20:06.456Z,5.10
2018-03-27T23:22:33.923Z,5.20
2018-03-27T23:25:01.525Z,5.20
2018-03-27T23:27:29.098Z,5.20
2018-03-27T23:29:56.624Z,5.10
2018-03-27T23:32:24.114Z,5.20
2018-03-27T23:34:51.687Z,5.20
2018-03-27T23:37:19.213Z,5.20
2018-03-27T23:39:46.748Z,5.30
2018-03-27T23:42:14.238Z,5.30
2018-03-27T23:44:41.725Z,5.30
2018-03-27T23:47:09.254Z,5.30
2018-03-27T23:49:36.764Z,5.40
2018-03-27T23:52:04.266Z,5.40
2018-03-27T23:54:31.811Z,5.50
2018-03-27T23:56:59.327Z,5.60
2018-03-27T23:59:26.858Z,5.40
